Airfield :
LOGIN :

Register | Disclaimer

   EN    FR    IT 

 










Legend :    VFR   Marginal VFR   IFR   Intensive IFR   Very Intensive IFR
Visi :
Ceiling :
>= 8 km
>= 3000ft
5 to 8 km
1000 to 3000 ft
1500m to 5 km
500 to 1000 ft
800 to 1500m
200 to 500 ft
< 800m
< 200 ft
Symbols :   Thunderstorms  Fog  Heavy snow  Heavy precipitations  Wind > 20 kt
SIGMETs :     Misc.  Thunderstorms  Icing  Turbulence  Mountain Waves  Volcanic Ashes







- Airport Elevation : 12 ft
- IATA code : BCN


LEBL - Barcelone

CURRENT METAR :
  • 211130Z 18010KT 140V210 9999 FEW025 28/22 Q1019 NOSIG

EXPIRED METARs :
  • 211100Z 16009KT 130V210 9999 FEW025 27/22 Q1020 NOSIG
  • 211030Z 17009KT 120V200 9999 FEW025 27/22 Q1020 NOSIG
  • 211000Z 17007KT 120V210 9999 FEW025 27/22 Q1020 NOSIG
  • 210930Z 16007KT 120V200 9999 FEW025 27/21 Q1020 NOSIG
  • 210900Z VRB02KT 9999 FEW025 27/21 Q1020 NOSIG

TAF TAF LEBL
Valid from the 21 at 12:00 until the 22 at 12:00 UTC


211100Z 2112/2212 20010KT 9999 FEW020 TX30/2112Z TN22/2205Z
BECMG 2120/2122 VRB03KT
TEMPO 2201/2206 33005KT
BECMG 2210/2212 21010KT
No reported NOTAMs for that airfield.



MET'MAP, your aeronautical weather chart ! - Copyright ORBIFLY December 2007 - Disclaimer

ORBIFLY MET'MAP TEAM :

Programming & Development : Alexandra Zaïnal
Concept & Development : Baudouin d'Aumeries
Co-Development & Prog : Marc-Olivier Méhu
Technical & hardware support : Manuel Goepfert

Contact : metmap@orbifly.com




SOURCES & CREDITS :

   NOAA